sensor_id;sensor_type;location;lat;lon;timestamp;P1;durP1;ratioP1;P2;durP2;ratioP2
19883;SDS011;10104;50.732;10.174;2024-03-02T00:00:16;30.57;;;18.80;;
19883;SDS011;10104;50.732;10.174;2024-03-02T00:02:56;27.63;;;17.83;;
19883;SDS011;10104;50.732;10.174;2024-03-02T00:05:36;31.47;;;19.33;;
19883;SDS011;10104;50.732;10.174;2024-03-02T00:08:19;31.97;;;18.47;;
19883;SDS011;10104;50.732;10.174;2024-03-02T00:11:04;28.10;;;16.93;;
19883;SDS011;10104;50.732;10.174;2024-03-02T00:13:44;33.23;;;19.03;;
19883;SDS011;10104;50.732;10.174;2024-03-02T00:16:27;31.90;;;19.00;;
19883;SDS011;10104;50.732;10.174;2024-03-02T00:19:10;30.30;;;18.80;;
19883;SDS011;10104;50.732;10.174;2024-03-02T00:21:51;34.20;;;19.53;;
19883;SDS011;10104;50.732;10.174;2024-03-02T00:24:33;32.13;;;19.00;;
19883;SDS011;10104;50.732;10.174;2024-03-02T00:27:14;35.10;;;19.13;;
19883;SDS011;10104;50.732;10.174;2024-03-02T00:29:56;34.13;;;19.03;;
19883;SDS011;10104;50.732;10.174;2024-03-02T00:32:37;35.67;;;19.27;;
19883;SDS011;10104;50.732;10.174;2024-03-02T00:35:17;35.23;;;18.60;;
19883;SDS011;10104;50.732;10.174;2024-03-02T00:37:58;30.37;;;18.67;;
19883;SDS011;10104;50.732;10.174;2024-03-02T00:40:38;33.13;;;18.23;;
19883;SDS011;10104;50.732;10.174;2024-03-02T00:46:15;30.80;;;19.00;;
19883;SDS011;10104;50.732;10.174;2024-03-02T00:48:58;37.07;;;20.80;;
19883;SDS011;10104;50.732;10.174;2024-03-02T00:51:40;32.27;;;18.67;;
19883;SDS011;10104;50.732;10.174;2024-03-02T00:54:27;35.13;;;19.43;;
19883;SDS011;10104;50.732;10.174;2024-03-02T00:57:10;30.47;;;18.90;;
19883;SDS011;10104;50.732;10.174;2024-03-02T00:59:52;31.23;;;19.40;;
19883;SDS011;10104;50.732;10.174;2024-03-02T01:02:32;32.47;;;19.60;;
19883;SDS011;10104;50.732;10.174;2024-03-02T01:05:12;31.33;;;18.93;;
19883;SDS011;10104;50.732;10.174;2024-03-02T01:07:53;31.83;;;18.87;;
19883;SDS011;10104;50.732;10.174;2024-03-02T01:10:33;29.67;;;19.50;;
19883;SDS011;10104;50.732;10.174;2024-03-02T01:13:13;31.97;;;19.53;;
19883;SDS011;10104;50.732;10.174;2024-03-02T01:15:53;34.17;;;19.93;;
19883;SDS011;10104;50.732;10.174;2024-03-02T01:18:33;30.13;;;19.97;;
19883;SDS011;10104;50.732;10.174;2024-03-02T01:21:14;34.70;;;20.23;;
19883;SDS011;10104;50.732;10.174;2024-03-02T01:23:54;33.23;;;19.77;;
19883;SDS011;10104;50.732;10.174;2024-03-02T01:26:34;30.30;;;19.67;;
19883;SDS011;10104;50.732;10.174;2024-03-02T01:29:14;33.50;;;20.23;;
19883;SDS011;10104;50.732;10.174;2024-03-02T01:31:54;33.63;;;19.27;;
19883;SDS011;10104;50.732;10.174;2024-03-02T01:34:35;32.23;;;19.80;;
19883;SDS011;10104;50.732;10.174;2024-03-02T01:37:15;31.70;;;18.87;;
19883;SDS011;10104;50.732;10.174;2024-03-02T01:39:55;34.40;;;19.87;;
19883;SDS011;10104;50.732;10.174;2024-03-02T01:42:36;33.93;;;20.33;;
19883;SDS011;10104;50.732;10.174;2024-03-02T01:45:17;36.53;;;20.77;;
19883;SDS011;10104;50.732;10.174;2024-03-02T01:47:58;37.83;;;21.30;;
19883;SDS011;10104;50.732;10.174;2024-03-02T01:50:38;36.07;;;19.77;;
19883;SDS011;10104;50.732;10.174;2024-03-02T01:53:18;34.50;;;19.43;;
19883;SDS011;10104;50.732;10.174;2024-03-02T01:56:00;33.70;;;19.90;;
19883;SDS011;10104;50.732;10.174;2024-03-02T01:58:41;34.97;;;20.60;;
19883;SDS011;10104;50.732;10.174;2024-03-02T02:01:22;38.40;;;20.77;;
19883;SDS011;10104;50.732;10.174;2024-03-02T02:04:03;36.83;;;21.27;;
19883;SDS011;10104;50.732;10.174;2024-03-02T02:06:46;35.57;;;20.40;;
19883;SDS011;10104;50.732;10.174;2024-03-02T02:09:26;36.77;;;22.00;;
19883;SDS011;10104;50.732;10.174;2024-03-02T02:12:06;34.20;;;19.87;;
19883;SDS011;10104;50.732;10.174;2024-03-02T02:14:48;37.37;;;20.57;;
19883;SDS011;10104;50.732;10.174;2024-03-02T02:17:29;42.60;;;21.23;;
19883;SDS011;10104;50.732;10.174;2024-03-02T02:20:10;33.30;;;20.07;;
19883;SDS011;10104;50.732;10.174;2024-03-02T02:25:34;33.77;;;20.17;;
19883;SDS011;10104;50.732;10.174;2024-03-02T02:28:15;34.80;;;20.37;;
19883;SDS011;10104;50.732;10.174;2024-03-02T02:30:55;37.03;;;20.77;;
19883;SDS011;10104;50.732;10.174;2024-03-02T02:33:40;34.50;;;20.20;;
19883;SDS011;10104;50.732;10.174;2024-03-02T02:36:21;34.30;;;19.00;;
19883;SDS011;10104;50.732;10.174;2024-03-02T02:39:02;32.63;;;19.57;;
19883;SDS011;10104;50.732;10.174;2024-03-02T02:41:43;37.17;;;19.93;;
19883;SDS011;10104;50.732;10.174;2024-03-02T02:44:23;33.77;;;19.17;;
19883;SDS011;10104;50.732;10.174;2024-03-02T02:47:04;36.00;;;20.50;;
19883;SDS011;10104;50.732;10.174;2024-03-02T02:49:44;32.00;;;18.23;;
19883;SDS011;10104;50.732;10.174;2024-03-02T02:52:25;33.60;;;20.40;;
19883;SDS011;10104;50.732;10.174;2024-03-02T02:55:06;33.53;;;19.53;;
19883;SDS011;10104;50.732;10.174;2024-03-02T02:57:47;35.67;;;20.47;;
19883;SDS011;10104;50.732;10.174;2024-03-02T03:00:27;38.63;;;20.80;;
19883;SDS011;10104;50.732;10.174;2024-03-02T03:03:08;36.50;;;21.27;;
19883;SDS011;10104;50.732;10.174;2024-03-02T03:05:48;39.83;;;19.80;;
19883;SDS011;10104;50.732;10.174;2024-03-02T03:08:29;43.47;;;20.77;;
19883;SDS011;10104;50.732;10.174;2024-03-02T03:11:09;43.03;;;22.53;;
19883;SDS011;10104;50.732;10.174;2024-03-02T03:13:49;39.77;;;22.40;;
19883;SDS011;10104;50.732;10.174;2024-03-02T03:16:29;41.57;;;22.80;;
19883;SDS011;10104;50.732;10.174;2024-03-02T03:19:09;40.33;;;22.53;;
19883;SDS011;10104;50.732;10.174;2024-03-02T03:21:50;40.03;;;22.17;;
19883;SDS011;10104;50.732;10.174;2024-03-02T03:24:30;37.63;;;21.73;;
19883;SDS011;10104;50.732;10.174;2024-03-02T03:27:10;39.63;;;21.73;;
19883;SDS011;10104;50.732;10.174;2024-03-02T03:29:51;35.87;;;19.43;;
19883;SDS011;10104;50.732;10.174;2024-03-02T03:32:32;36.07;;;20.53;;
19883;SDS011;10104;50.732;10.174;2024-03-02T03:35:12;38.80;;;20.70;;
19883;SDS011;10104;50.732;10.174;2024-03-02T03:37:54;38.30;;;21.90;;
19883;SDS011;10104;50.732;10.174;2024-03-02T03:40:34;38.03;;;20.73;;
19883;SDS011;10104;50.732;10.174;2024-03-02T03:43:14;33.97;;;19.13;;
19883;SDS011;10104;50.732;10.174;2024-03-02T03:45:55;36.10;;;20.30;;
19883;SDS011;10104;50.732;10.174;2024-03-02T03:48:35;39.53;;;21.20;;
19883;SDS011;10104;50.732;10.174;2024-03-02T03:51:15;36.33;;;20.23;;
19883;SDS011;10104;50.732;10.174;2024-03-02T03:53:55;32.60;;;19.53;;
19883;SDS011;10104;50.732;10.174;2024-03-02T03:56:36;36.90;;;20.93;;
19883;SDS011;10104;50.732;10.174;2024-03-02T03:59:16;35.93;;;20.70;;
19883;SDS011;10104;50.732;10.174;2024-03-02T04:01:57;38.73;;;21.30;;
19883;SDS011;10104;50.732;10.174;2024-03-02T04:04:37;39.60;;;21.43;;
19883;SDS011;10104;50.732;10.174;2024-03-02T04:07:17;41.80;;;22.93;;
19883;SDS011;10104;50.732;10.174;2024-03-02T04:09:57;39.30;;;20.83;;
19883;SDS011;10104;50.732;10.174;2024-03-02T04:12:38;41.23;;;20.90;;
19883;SDS011;10104;50.732;10.174;2024-03-02T04:15:18;42.27;;;21.70;;
19883;SDS011;10104;50.732;10.174;2024-03-02T04:17:58;36.43;;;21.03;;
19883;SDS011;10104;50.732;10.174;2024-03-02T04:20:38;43.33;;;21.13;;
19883;SDS011;10104;50.732;10.174;2024-03-02T04:23:19;40.90;;;21.07;;
19883;SDS011;10104;50.732;10.174;2024-03-02T04:25:59;38.70;;;21.73;;
19883;SDS011;10104;50.732;10.174;2024-03-02T04:28:39;36.27;;;20.17;;
19883;SDS011;10104;50.732;10.174;2024-03-02T04:31:19;44.77;;;23.70;;
19883;SDS011;10104;50.732;10.174;2024-03-02T04:34:00;38.87;;;21.30;;
19883;SDS011;10104;50.732;10.174;2024-03-02T04:36:41;45.53;;;23.07;;
19883;SDS011;10104;50.732;10.174;2024-03-02T04:39:21;42.27;;;22.70;;
19883;SDS011;10104;50.732;10.174;2024-03-02T04:42:01;40.37;;;22.47;;
19883;SDS011;10104;50.732;10.174;2024-03-02T04:44:42;42.57;;;21.20;;
19883;SDS011;10104;50.732;10.174;2024-03-02T04:47:22;40.27;;;21.13;;
19883;SDS011;10104;50.732;10.174;2024-03-02T04:50:02;39.97;;;20.73;;
19883;SDS011;10104;50.732;10.174;2024-03-02T04:52:43;39.07;;;20.60;;
19883;SDS011;10104;50.732;10.174;2024-03-02T04:55:23;41.20;;;21.40;;
19883;SDS011;10104;50.732;10.174;2024-03-02T04:58:30;36.23;;;20.33;;
19883;SDS011;10104;50.732;10.174;2024-03-02T05:01:10;40.07;;;21.33;;
19883;SDS011;10104;50.732;10.174;2024-03-02T05:03:51;37.27;;;19.97;;
19883;SDS011;10104;50.732;10.174;2024-03-02T05:06:31;38.90;;;20.60;;
19883;SDS011;10104;50.732;10.174;2024-03-02T05:09:11;41.33;;;22.10;;
19883;SDS011;10104;50.732;10.174;2024-03-02T05:11:52;35.43;;;19.23;;
19883;SDS011;10104;50.732;10.174;2024-03-02T05:14:50;36.13;;;20.70;;
19883;SDS011;10104;50.732;10.174;2024-03-02T05:17:30;36.50;;;20.37;;
19883;SDS011;10104;50.732;10.174;2024-03-02T05:20:10;37.07;;;19.43;;
19883;SDS011;10104;50.732;10.174;2024-03-02T05:22:51;34.93;;;18.73;;
19883;SDS011;10104;50.732;10.174;2024-03-02T05:25:31;36.30;;;18.73;;
19883;SDS011;10104;50.732;10.174;2024-03-02T05:28:11;34.87;;;19.03;;
19883;SDS011;10104;50.732;10.174;2024-03-02T05:30:52;32.77;;;19.03;;
19883;SDS011;10104;50.732;10.174;2024-03-02T05:33:32;33.93;;;18.93;;
19883;SDS011;10104;50.732;10.174;2024-03-02T05:36:13;30.83;;;18.73;;
19883;SDS011;10104;50.732;10.174;2024-03-02T05:38:53;34.07;;;18.73;;
19883;SDS011;10104;50.732;10.174;2024-03-02T05:41:33;32.13;;;17.83;;
19883;SDS011;10104;50.732;10.174;2024-03-02T05:44:14;32.03;;;18.00;;
19883;SDS011;10104;50.732;10.174;2024-03-02T05:46:55;33.27;;;17.07;;
19883;SDS011;10104;50.732;10.174;2024-03-02T05:49:36;30.47;;;17.07;;
19883;SDS011;10104;50.732;10.174;2024-03-02T05:52:16;33.07;;;17.17;;
19883;SDS011;10104;50.732;10.174;2024-03-02T05:54:56;31.60;;;17.03;;
19883;SDS011;10104;50.732;10.174;2024-03-02T05:57:37;29.87;;;16.80;;
19883;SDS011;10104;50.732;10.174;2024-03-02T06:00:35;28.53;;;15.77;;
19883;SDS011;10104;50.732;10.174;2024-03-02T06:03:15;30.90;;;16.33;;
19883;SDS011;10104;50.732;10.174;2024-03-02T06:05:56;30.43;;;16.17;;
19883;SDS011;10104;50.732;10.174;2024-03-02T06:08:36;29.17;;;16.13;;
19883;SDS011;10104;50.732;10.174;2024-03-02T06:11:17;27.03;;;15.33;;
19883;SDS011;10104;50.732;10.174;2024-03-02T06:13:59;28.83;;;15.80;;
19883;SDS011;10104;50.732;10.174;2024-03-02T06:16:39;30.87;;;16.37;;
19883;SDS011;10104;50.732;10.174;2024-03-02T06:19:19;27.73;;;16.23;;
19883;SDS011;10104;50.732;10.174;2024-03-02T06:22:00;27.40;;;15.80;;
19883;SDS011;10104;50.732;10.174;2024-03-02T06:24:40;29.53;;;16.63;;
19883;SDS011;10104;50.732;10.174;2024-03-02T06:27:20;30.13;;;16.63;;
19883;SDS011;10104;50.732;10.174;2024-03-02T06:30:00;31.23;;;17.07;;
19883;SDS011;10104;50.732;10.174;2024-03-02T06:32:40;29.20;;;15.97;;
19883;SDS011;10104;50.732;10.174;2024-03-02T06:35:20;28.90;;;16.13;;
19883;SDS011;10104;50.732;10.174;2024-03-02T06:38:01;29.20;;;16.37;;
19883;SDS011;10104;50.732;10.174;2024-03-02T06:40:41;27.37;;;15.17;;
19883;SDS011;10104;50.732;10.174;2024-03-02T06:43:22;29.80;;;16.87;;
19883;SDS011;10104;50.732;10.174;2024-03-02T06:46:03;30.70;;;17.53;;
19883;SDS011;10104;50.732;10.174;2024-03-02T06:48:45;29.20;;;16.30;;
19883;SDS011;10104;50.732;10.174;2024-03-02T06:51:25;28.67;;;16.10;;
19883;SDS011;10104;50.732;10.174;2024-03-02T06:54:05;30.53;;;17.23;;
19883;SDS011;10104;50.732;10.174;2024-03-02T06:56:45;27.47;;;16.90;;
19883;SDS011;10104;50.732;10.174;2024-03-02T06:59:25;30.37;;;16.30;;
19883;SDS011;10104;50.732;10.174;2024-03-02T07:02:05;32.17;;;16.47;;
19883;SDS011;10104;50.732;10.174;2024-03-02T07:04:45;31.30;;;18.10;;
19883;SDS011;10104;50.732;10.174;2024-03-02T07:07:25;30.33;;;17.27;;
19883;SDS011;10104;50.732;10.174;2024-03-02T07:10:05;31.27;;;17.33;;
19883;SDS011;10104;50.732;10.174;2024-03-02T07:12:47;31.77;;;17.83;;
19883;SDS011;10104;50.732;10.174;2024-03-02T07:15:27;27.60;;;16.67;;
19883;SDS011;10104;50.732;10.174;2024-03-02T07:18:07;27.87;;;16.80;;
19883;SDS011;10104;50.732;10.174;2024-03-02T07:20:47;28.93;;;16.43;;
19883;SDS011;10104;50.732;10.174;2024-03-02T07:23:29;28.93;;;16.40;;
19883;SDS011;10104;50.732;10.174;2024-03-02T07:26:10;31.73;;;16.87;;
19883;SDS011;10104;50.732;10.174;2024-03-02T07:28:54;31.87;;;17.07;;
19883;SDS011;10104;50.732;10.174;2024-03-02T07:31:34;28.63;;;16.87;;
19883;SDS011;10104;50.732;10.174;2024-03-02T07:34:15;30.60;;;15.90;;
19883;SDS011;10104;50.732;10.174;2024-03-02T07:36:55;33.37;;;15.73;;
19883;SDS011;10104;50.732;10.174;2024-03-02T07:39:36;28.67;;;16.60;;
19883;SDS011;10104;50.732;10.174;2024-03-02T07:42:16;28.50;;;17.30;;
19883;SDS011;10104;50.732;10.174;2024-03-02T07:44:56;27.70;;;15.23;;
19883;SDS011;10104;50.732;10.174;2024-03-02T07:47:37;27.33;;;16.13;;
19883;SDS011;10104;50.732;10.174;2024-03-02T07:50:17;23.17;;;14.47;;
19883;SDS011;10104;50.732;10.174;2024-03-02T07:52:57;23.10;;;13.90;;
19883;SDS011;10104;50.732;10.174;2024-03-02T07:55:37;23.60;;;15.03;;
19883;SDS011;10104;50.732;10.174;2024-03-02T07:58:17;27.90;;;16.50;;
19883;SDS011;10104;50.732;10.174;2024-03-02T08:00:59;24.47;;;15.83;;
19883;SDS011;10104;50.732;10.174;2024-03-02T08:03:41;24.93;;;15.37;;
19883;SDS011;10104;50.732;10.174;2024-03-02T08:06:22;24.57;;;15.53;;
19883;SDS011;10104;50.732;10.174;2024-03-02T08:09:02;25.83;;;15.73;;
19883;SDS011;10104;50.732;10.174;2024-03-02T08:11:48;26.73;;;15.57;;
19883;SDS011;10104;50.732;10.174;2024-03-02T08:14:29;24.30;;;14.63;;
19883;SDS011;10104;50.732;10.174;2024-03-02T08:17:09;24.03;;;14.83;;
19883;SDS011;10104;50.732;10.174;2024-03-02T08:19:51;24.27;;;14.60;;
19883;SDS011;10104;50.732;10.174;2024-03-02T08:22:31;24.43;;;14.63;;
19883;SDS011;10104;50.732;10.174;2024-03-02T08:25:11;22.00;;;14.17;;
19883;SDS011;10104;50.732;10.174;2024-03-02T08:27:51;22.93;;;14.20;;
19883;SDS011;10104;50.732;10.174;2024-03-02T08:30:32;22.80;;;13.90;;
19883;SDS011;10104;50.732;10.174;2024-03-02T08:33:12;21.27;;;13.50;;
19883;SDS011;10104;50.732;10.174;2024-03-02T08:35:52;22.67;;;13.40;;
19883;SDS011;10104;50.732;10.174;2024-03-02T08:38:32;22.37;;;13.40;;
19883;SDS011;10104;50.732;10.174;2024-03-02T08:41:13;23.37;;;13.67;;
19883;SDS011;10104;50.732;10.174;2024-03-02T08:43:56;23.03;;;15.67;;
19883;SDS011;10104;50.732;10.174;2024-03-02T08:46:36;26.03;;;15.70;;
19883;SDS011;10104;50.732;10.174;2024-03-02T08:49:17;25.40;;;16.13;;
19883;SDS011;10104;50.732;10.174;2024-03-02T08:51:57;24.27;;;15.30;;
19883;SDS011;10104;50.732;10.174;2024-03-02T08:54:38;21.90;;;14.30;;
19883;SDS011;10104;50.732;10.174;2024-03-02T08:57:29;22.37;;;14.27;;
19883;SDS011;10104;50.732;10.174;2024-03-02T09:00:10;23.30;;;15.43;;
19883;SDS011;10104;50.732;10.174;2024-03-02T09:02:51;20.73;;;13.03;;
19883;SDS011;10104;50.732;10.174;2024-03-02T09:05:32;19.73;;;13.23;;
19883;SDS011;10104;50.732;10.174;2024-03-02T09:08:12;22.57;;;13.73;;
19883;SDS011;10104;50.732;10.174;2024-03-02T09:10:52;20.40;;;13.30;;
19883;SDS011;10104;50.732;10.174;2024-03-02T09:13:33;23.10;;;14.60;;
19883;SDS011;10104;50.732;10.174;2024-03-02T09:16:13;23.33;;;13.27;;
19883;SDS011;10104;50.732;10.174;2024-03-02T09:18:54;19.60;;;12.67;;
19883;SDS011;10104;50.732;10.174;2024-03-02T09:21:34;21.13;;;13.60;;
19883;SDS011;10104;50.732;10.174;2024-03-02T09:24:14;19.07;;;12.93;;
19883;SDS011;10104;50.732;10.174;2024-03-02T09:26:57;17.50;;;11.50;;
19883;SDS011;10104;50.732;10.174;2024-03-02T09:29:38;21.87;;;13.63;;
19883;SDS011;10104;50.732;10.174;2024-03-02T09:32:18;21.63;;;13.17;;
19883;SDS011;10104;50.732;10.174;2024-03-02T09:34:58;18.03;;;12.23;;
19883;SDS011;10104;50.732;10.174;2024-03-02T09:37:39;18.17;;;11.60;;
19883;SDS011;10104;50.732;10.174;2024-03-02T09:40:21;17.47;;;11.57;;
19883;SDS011;10104;50.732;10.174;2024-03-02T09:43:01;19.07;;;11.83;;
19883;SDS011;10104;50.732;10.174;2024-03-02T09:45:43;19.23;;;11.93;;
19883;SDS011;10104;50.732;10.174;2024-03-02T09:48:25;18.47;;;12.30;;
19883;SDS011;10104;50.732;10.174;2024-03-02T09:51:05;18.57;;;11.83;;
19883;SDS011;10104;50.732;10.174;2024-03-02T09:53:46;16.47;;;11.30;;
19883;SDS011;10104;50.732;10.174;2024-03-02T09:56:27;16.57;;;11.97;;
19883;SDS011;10104;50.732;10.174;2024-03-02T09:59:07;17.13;;;11.00;;
19883;SDS011;10104;50.732;10.174;2024-03-02T10:02:00;18.83;;;11.63;;
19883;SDS011;10104;50.732;10.174;2024-03-02T10:04:42;16.93;;;10.47;;
19883;SDS011;10104;50.732;10.174;2024-03-02T10:07:22;17.90;;;11.63;;
19883;SDS011;10104;50.732;10.174;2024-03-02T10:10:15;18.00;;;11.80;;
19883;SDS011;10104;50.732;10.174;2024-03-02T10:13:03;22.10;;;12.40;;
19883;SDS011;10104;50.732;10.174;2024-03-02T10:15:45;16.77;;;11.17;;
19883;SDS011;10104;50.732;10.174;2024-03-02T10:18:26;17.33;;;11.53;;
19883;SDS011;10104;50.732;10.174;2024-03-02T10:21:14;16.77;;;11.03;;
19883;SDS011;10104;50.732;10.174;2024-03-02T10:23:56;20.50;;;11.23;;
19883;SDS011;10104;50.732;10.174;2024-03-02T10:26:47;17.93;;;11.43;;
19883;SDS011;10104;50.732;10.174;2024-03-02T10:29:29;19.17;;;11.67;;
19883;SDS011;10104;50.732;10.174;2024-03-02T10:32:09;19.07;;;12.07;;
19883;SDS011;10104;50.732;10.174;2024-03-02T10:34:51;20.37;;;12.90;;
19883;SDS011;10104;50.732;10.174;2024-03-02T10:37:32;20.93;;;13.13;;
19883;SDS011;10104;50.732;10.174;2024-03-02T10:40:12;18.70;;;12.03;;
19883;SDS011;10104;50.732;10.174;2024-03-02T10:42:53;17.10;;;11.83;;
19883;SDS011;10104;50.732;10.174;2024-03-02T10:45:33;18.27;;;12.57;;
19883;SDS011;10104;50.732;10.174;2024-03-02T10:48:13;15.67;;;11.50;;
19883;SDS011;10104;50.732;10.174;2024-03-02T10:50:54;16.40;;;11.83;;
19883;SDS011;10104;50.732;10.174;2024-03-02T10:53:34;18.23;;;12.03;;
19883;SDS011;10104;50.732;10.174;2024-03-02T10:56:16;20.27;;;12.30;;
19883;SDS011;10104;50.732;10.174;2024-03-02T11:02:06;16.90;;;11.73;;
19883;SDS011;10104;50.732;10.174;2024-03-02T11:04:48;16.13;;;11.67;;
19883;SDS011;10104;50.732;10.174;2024-03-02T11:07:29;17.13;;;11.33;;
19883;SDS011;10104;50.732;10.174;2024-03-02T11:10:10;15.73;;;10.37;;
19883;SDS011;10104;50.732;10.174;2024-03-02T11:13:00;14.37;;;9.97;;
19883;SDS011;10104;50.732;10.174;2024-03-02T11:15:45;17.27;;;10.23;;
19883;SDS011;10104;50.732;10.174;2024-03-02T11:18:25;15.43;;;11.00;;
19883;SDS011;10104;50.732;10.174;2024-03-02T11:21:06;15.77;;;10.18;;
19883;SDS011;10104;50.732;10.174;2024-03-02T11:23:47;14.93;;;9.93;;
19883;SDS011;10104;50.732;10.174;2024-03-02T11:26:28;16.23;;;11.07;;
19883;SDS011;10104;50.732;10.174;2024-03-02T11:29:08;16.00;;;10.98;;
19883;SDS011;10104;50.732;10.174;2024-03-02T11:31:57;14.35;;;9.60;;
19883;SDS011;10104;50.732;10.174;2024-03-02T11:34:39;15.65;;;9.60;;
19883;SDS011;10104;50.732;10.174;2024-03-02T11:37:25;17.95;;;10.88;;
19883;SDS011;10104;50.732;10.174;2024-03-02T11:40:06;13.60;;;9.52;;
19883;SDS011;10104;50.732;10.174;2024-03-02T11:42:49;15.45;;;10.85;;
19883;SDS011;10104;50.732;10.174;2024-03-02T11:45:29;15.13;;;10.55;;
19883;SDS011;10104;50.732;10.174;2024-03-02T11:48:14;14.73;;;10.88;;
19883;SDS011;10104;50.732;10.174;2024-03-02T11:50:57;14.45;;;10.27;;
19883;SDS011;10104;50.732;10.174;2024-03-02T11:53:38;16.85;;;9.68;;
19883;SDS011;10104;50.732;10.174;2024-03-02T11:56:20;15.73;;;9.75;;
19883;SDS011;10104;50.732;10.174;2024-03-02T11:59:00;12.95;;;9.65;;
19883;SDS011;10104;50.732;10.174;2024-03-02T12:01:41;12.73;;;8.68;;
19883;SDS011;10104;50.732;10.174;2024-03-02T12:04:24;13.85;;;9.52;;
19883;SDS011;10104;50.732;10.174;2024-03-02T12:07:08;13.02;;;9.32;;
19883;SDS011;10104;50.732;10.174;2024-03-02T12:09:49;13.32;;;9.70;;
19883;SDS011;10104;50.732;10.174;2024-03-02T12:12:39;14.90;;;9.43;;
19883;SDS011;10104;50.732;10.174;2024-03-02T12:15:22;15.32;;;9.75;;
19883;SDS011;10104;50.732;10.174;2024-03-02T12:18:06;14.68;;;10.63;;
19883;SDS011;10104;50.732;10.174;2024-03-02T12:20:48;15.55;;;10.25;;
19883;SDS011;10104;50.732;10.174;2024-03-02T12:23:30;14.65;;;9.43;;
19883;SDS011;10104;50.732;10.174;2024-03-02T12:26:10;13.85;;;9.93;;
19883;SDS011;10104;50.732;10.174;2024-03-02T12:28:50;11.80;;;8.60;;
19883;SDS011;10104;50.732;10.174;2024-03-02T12:31:34;10.13;;;7.82;;
19883;SDS011;10104;50.732;10.174;2024-03-02T12:34:15;14.07;;;8.90;;
19883;SDS011;10104;50.732;10.174;2024-03-02T12:36:58;12.07;;;8.50;;
19883;SDS011;10104;50.732;10.174;2024-03-02T12:39:38;12.57;;;8.05;;
19883;SDS011;10104;50.732;10.174;2024-03-02T12:42:19;13.50;;;8.18;;
19883;SDS011;10104;50.732;10.174;2024-03-02T12:44:59;12.82;;;8.73;;
19883;SDS011;10104;50.732;10.174;2024-03-02T12:47:40;11.15;;;7.82;;
19883;SDS011;10104;50.732;10.174;2024-03-02T12:50:21;12.65;;;8.07;;
19883;SDS011;10104;50.732;10.174;2024-03-02T12:53:02;13.43;;;7.85;;
19883;SDS011;10104;50.732;10.174;2024-03-02T12:55:42;12.43;;;7.75;;
19883;SDS011;10104;50.732;10.174;2024-03-02T12:58:24;10.32;;;7.60;;
19883;SDS011;10104;50.732;10.174;2024-03-02T13:01:05;11.20;;;8.50;;
19883;SDS011;10104;50.732;10.174;2024-03-02T13:03:54;10.95;;;7.40;;
19883;SDS011;10104;50.732;10.174;2024-03-02T13:06:37;8.95;;;6.70;;
19883;SDS011;10104;50.732;10.174;2024-03-02T13:09:17;10.02;;;6.88;;
19883;SDS011;10104;50.732;10.174;2024-03-02T13:11:57;10.60;;;6.70;;
19883;SDS011;10104;50.732;10.174;2024-03-02T13:14:39;11.48;;;6.47;;
19883;SDS011;10104;50.732;10.174;2024-03-02T13:17:20;10.00;;;6.68;;
19883;SDS011;10104;50.732;10.174;2024-03-02T13:20:01;10.15;;;7.30;;
19883;SDS011;10104;50.732;10.174;2024-03-02T13:22:44;8.70;;;6.90;;
19883;SDS011;10104;50.732;10.174;2024-03-02T13:25:24;9.73;;;6.22;;
19883;SDS011;10104;50.732;10.174;2024-03-02T13:28:04;8.07;;;5.82;;
19883;SDS011;10104;50.732;10.174;2024-03-02T13:30:45;8.57;;;5.85;;
19883;SDS011;10104;50.732;10.174;2024-03-02T13:33:25;9.68;;;5.70;;
19883;SDS011;10104;50.732;10.174;2024-03-02T13:36:06;8.82;;;6.13;;
19883;SDS011;10104;50.732;10.174;2024-03-02T13:38:46;8.10;;;5.97;;
19883;SDS011;10104;50.732;10.174;2024-03-02T13:41:26;9.52;;;6.05;;
19883;SDS011;10104;50.732;10.174;2024-03-02T13:44:06;8.70;;;5.70;;
19883;SDS011;10104;50.732;10.174;2024-03-02T13:46:47;8.05;;;5.55;;
19883;SDS011;10104;50.732;10.174;2024-03-02T13:49:28;8.25;;;5.47;;
19883;SDS011;10104;50.732;10.174;2024-03-02T13:52:17;8.55;;;5.68;;
19883;SDS011;10104;50.732;10.174;2024-03-02T13:54:58;8.23;;;5.88;;
19883;SDS011;10104;50.732;10.174;2024-03-02T13:57:38;9.82;;;5.97;;
19883;SDS011;10104;50.732;10.174;2024-03-02T14:00:19;7.85;;;5.50;;
19883;SDS011;10104;50.732;10.174;2024-03-02T14:02:59;8.65;;;5.18;;
19883;SDS011;10104;50.732;10.174;2024-03-02T14:05:40;8.40;;;5.72;;
19883;SDS011;10104;50.732;10.174;2024-03-02T14:08:20;9.02;;;5.50;;
19883;SDS011;10104;50.732;10.174;2024-03-02T14:11:01;9.27;;;6.47;;
19883;SDS011;10104;50.732;10.174;2024-03-02T14:13:42;9.50;;;5.72;;
19883;SDS011;10104;50.732;10.174;2024-03-02T14:16:24;11.20;;;6.13;;
19883;SDS011;10104;50.732;10.174;2024-03-02T14:19:04;8.23;;;4.90;;
19883;SDS011;10104;50.732;10.174;2024-03-02T14:21:45;8.07;;;5.70;;
19883;SDS011;10104;50.732;10.174;2024-03-02T14:24:25;13.80;;;8.77;;
19883;SDS011;10104;50.732;10.174;2024-03-02T14:27:06;9.43;;;6.10;;
19883;SDS011;10104;50.732;10.174;2024-03-02T14:30:04;16.65;;;9.20;;
19883;SDS011;10104;50.732;10.174;2024-03-02T14:32:45;12.88;;;7.72;;
19883;SDS011;10104;50.732;10.174;2024-03-02T14:35:25;10.18;;;6.10;;
19883;SDS011;10104;50.732;10.174;2024-03-02T14:38:05;15.50;;;8.20;;
19883;SDS011;10104;50.732;10.174;2024-03-02T14:40:45;14.57;;;8.55;;
19883;SDS011;10104;50.732;10.174;2024-03-02T14:43:26;8.68;;;5.10;;
19883;SDS011;10104;50.732;10.174;2024-03-02T14:46:06;7.65;;;5.30;;
19883;SDS011;10104;50.732;10.174;2024-03-02T14:48:49;13.93;;;8.00;;
19883;SDS011;10104;50.732;10.174;2024-03-02T14:51:29;12.43;;;6.60;;
19883;SDS011;10104;50.732;10.174;2024-03-02T14:54:09;11.93;;;8.05;;
19883;SDS011;10104;50.732;10.174;2024-03-02T14:56:49;8.70;;;6.25;;
19883;SDS011;10104;50.732;10.174;2024-03-02T14:59:30;11.80;;;7.45;;
19883;SDS011;10104;50.732;10.174;2024-03-02T15:02:10;11.82;;;7.05;;
19883;SDS011;10104;50.732;10.174;2024-03-02T15:04:50;10.50;;;6.57;;
19883;SDS011;10104;50.732;10.174;2024-03-02T15:07:30;8.73;;;6.35;;
19883;SDS011;10104;50.732;10.174;2024-03-02T15:10:11;8.15;;;6.28;;
19883;SDS011;10104;50.732;10.174;2024-03-02T15:12:51;8.80;;;6.43;;
19883;SDS011;10104;50.732;10.174;2024-03-02T15:15:31;8.80;;;6.30;;
19883;SDS011;10104;50.732;10.174;2024-03-02T15:18:12;9.98;;;6.10;;
19883;SDS011;10104;50.732;10.174;2024-03-02T15:20:52;11.98;;;6.60;;
19883;SDS011;10104;50.732;10.174;2024-03-02T15:23:33;8.15;;;6.00;;
19883;SDS011;10104;50.732;10.174;2024-03-02T15:26:14;8.20;;;5.88;;
19883;SDS011;10104;50.732;10.174;2024-03-02T15:28:54;7.70;;;5.53;;
19883;SDS011;10104;50.732;10.174;2024-03-02T15:31:35;9.70;;;6.63;;
19883;SDS011;10104;50.732;10.174;2024-03-02T15:34:16;9.15;;;6.15;;
19883;SDS011;10104;50.732;10.174;2024-03-02T15:36:56;9.38;;;6.15;;
19883;SDS011;10104;50.732;10.174;2024-03-02T15:39:37;11.55;;;6.05;;
19883;SDS011;10104;50.732;10.174;2024-03-02T15:42:17;10.15;;;5.85;;